sensor_id;sensor_type;location;lat;lon;timestamp;temperature;humidity
20658;DHT22;10488;50.846;4.078;2024-03-29T00:02:06;9.10;99.90
20658;DHT22;10488;50.846;4.078;2024-03-29T00:04:32;9.10;99.90
20658;DHT22;10488;50.846;4.078;2024-03-29T00:06:58;9.10;99.90
20658;DHT22;10488;50.846;4.078;2024-03-29T00:09:23;9.10;99.90
20658;DHT22;10488;50.846;4.078;2024-03-29T00:11:49;9.10;99.90
20658;DHT22;10488;50.846;4.078;2024-03-29T00:14:14;9.10;99.90
20658;DHT22;10488;50.846;4.078;2024-03-29T00:16:40;9.10;99.90
20658;DHT22;10488;50.846;4.078;2024-03-29T00:19:06;9.20;99.90
20658;DHT22;10488;50.846;4.078;2024-03-29T00:21:32;9.20;99.90
20658;DHT22;10488;50.846;4.078;2024-03-29T00:23:58;9.20;99.90
20658;DHT22;10488;50.846;4.078;2024-03-29T00:26:23;9.20;99.90
20658;DHT22;10488;50.846;4.078;2024-03-29T00:28:49;9.20;99.90
20658;DHT22;10488;50.846;4.078;2024-03-29T00:31:15;9.30;99.90
20658;DHT22;10488;50.846;4.078;2024-03-29T00:33:40;9.30;99.90
20658;DHT22;10488;50.846;4.078;2024-03-29T00:36:07;9.30;99.90
20658;DHT22;10488;50.846;4.078;2024-03-29T00:38:32;9.40;99.90
20658;DHT22;10488;50.846;4.078;2024-03-29T00:40:58;9.40;99.90
20658;DHT22;10488;50.846;4.078;2024-03-29T00:43:24;9.50;99.90
20658;DHT22;10488;50.846;4.078;2024-03-29T00:45:49;9.50;99.90
20658;DHT22;10488;50.846;4.078;2024-03-29T00:48:15;9.60;99.90
20658;DHT22;10488;50.846;4.078;2024-03-29T00:50:43;9.60;99.90
20658;DHT22;10488;50.846;4.078;2024-03-29T00:53:08;9.60;99.90
20658;DHT22;10488;50.846;4.078;2024-03-29T00:55:34;9.60;99.90
20658;DHT22;10488;50.846;4.078;2024-03-29T00:58:00;9.70;99.90
20658;DHT22;10488;50.846;4.078;2024-03-29T01:00:25;9.70;99.90
20658;DHT22;10488;50.846;4.078;2024-03-29T01:02:51;9.70;99.90
20658;DHT22;10488;50.846;4.078;2024-03-29T01:05:17;9.80;99.90
20658;DHT22;10488;50.846;4.078;2024-03-29T01:07:42;9.80;99.90
20658;DHT22;10488;50.846;4.078;2024-03-29T01:10:08;9.90;99.90
20658;DHT22;10488;50.846;4.078;2024-03-29T01:12:35;10.00;99.90
20658;DHT22;10488;50.846;4.078;2024-03-29T01:15:01;10.00;99.90
20658;DHT22;10488;50.846;4.078;2024-03-29T01:17:28;10.00;99.90
20658;DHT22;10488;50.846;4.078;2024-03-29T01:19:54;10.10;99.90
20658;DHT22;10488;50.846;4.078;2024-03-29T01:22:19;10.10;99.90
20658;DHT22;10488;50.846;4.078;2024-03-29T01:24:45;10.10;99.90
20658;DHT22;10488;50.846;4.078;2024-03-29T01:27:10;10.10;99.90
20658;DHT22;10488;50.846;4.078;2024-03-29T01:29:36;10.10;99.90
20658;DHT22;10488;50.846;4.078;2024-03-29T01:32:03;10.00;99.90
20658;DHT22;10488;50.846;4.078;2024-03-29T01:34:29;10.00;99.90
20658;DHT22;10488;50.846;4.078;2024-03-29T01:36:55;10.00;99.90
20658;DHT22;10488;50.846;4.078;2024-03-29T01:39:21;10.00;99.90
20658;DHT22;10488;50.846;4.078;2024-03-29T01:41:52;10.00;99.90
20658;DHT22;10488;50.846;4.078;2024-03-29T01:44:18;10.00;99.90
20658;DHT22;10488;50.846;4.078;2024-03-29T01:46:44;9.90;99.90
20658;DHT22;10488;50.846;4.078;2024-03-29T01:49:12;9.90;99.90
20658;DHT22;10488;50.846;4.078;2024-03-29T01:51:38;10.00;99.90
20658;DHT22;10488;50.846;4.078;2024-03-29T01:54:06;9.90;99.90
20658;DHT22;10488;50.846;4.078;2024-03-29T01:56:35;9.90;99.90
20658;DHT22;10488;50.846;4.078;2024-03-29T01:59:03;9.80;99.90
20658;DHT22;10488;50.846;4.078;2024-03-29T02:01:30;9.80;99.90
20658;DHT22;10488;50.846;4.078;2024-03-29T02:03:56;9.60;99.90
20658;DHT22;10488;50.846;4.078;2024-03-29T02:06:22;9.70;99.90
20658;DHT22;10488;50.846;4.078;2024-03-29T02:08:50;9.50;99.90
20658;DHT22;10488;50.846;4.078;2024-03-29T02:11:17;9.50;99.90
20658;DHT22;10488;50.846;4.078;2024-03-29T02:13:44;9.50;99.90
20658;DHT22;10488;50.846;4.078;2024-03-29T02:16:10;9.40;99.90
20658;DHT22;10488;50.846;4.078;2024-03-29T02:18:36;9.40;99.90
20658;DHT22;10488;50.846;4.078;2024-03-29T02:21:02;9.30;99.90
20658;DHT22;10488;50.846;4.078;2024-03-29T02:23:30;9.20;99.90
20658;DHT22;10488;50.846;4.078;2024-03-29T02:25:58;9.20;99.90
20658;DHT22;10488;50.846;4.078;2024-03-29T02:28:24;9.20;99.90
20658;DHT22;10488;50.846;4.078;2024-03-29T02:30:50;9.20;99.90
20658;DHT22;10488;50.846;4.078;2024-03-29T02:33:16;9.10;99.90
20658;DHT22;10488;50.846;4.078;2024-03-29T02:35:42;9.00;99.90
20658;DHT22;10488;50.846;4.078;2024-03-29T02:38:08;9.00;99.90
20658;DHT22;10488;50.846;4.078;2024-03-29T02:40:34;9.00;99.90
20658;DHT22;10488;50.846;4.078;2024-03-29T02:42:59;8.90;99.90
20658;DHT22;10488;50.846;4.078;2024-03-29T02:45:25;8.90;99.90
20658;DHT22;10488;50.846;4.078;2024-03-29T02:47:51;8.80;99.90
20658;DHT22;10488;50.846;4.078;2024-03-29T02:50:16;8.70;99.90
20658;DHT22;10488;50.846;4.078;2024-03-29T02:52:42;8.70;99.90
20658;DHT22;10488;50.846;4.078;2024-03-29T02:55:08;8.60;99.90
20658;DHT22;10488;50.846;4.078;2024-03-29T02:57:37;8.60;99.90
20658;DHT22;10488;50.846;4.078;2024-03-29T03:00:04;8.50;99.90
20658;DHT22;10488;50.846;4.078;2024-03-29T03:02:30;8.40;99.90
20658;DHT22;10488;50.846;4.078;2024-03-29T03:04:56;8.30;99.90
20658;DHT22;10488;50.846;4.078;2024-03-29T03:07:22;8.30;99.90
20658;DHT22;10488;50.846;4.078;2024-03-29T03:10:06;8.30;99.90
20658;DHT22;10488;50.846;4.078;2024-03-29T03:12:50;8.30;99.90
20658;DHT22;10488;50.846;4.078;2024-03-29T03:15:16;8.20;99.90
20658;DHT22;10488;50.846;4.078;2024-03-29T03:17:42;8.20;99.90
20658;DHT22;10488;50.846;4.078;2024-03-29T03:20:08;8.20;99.90
20658;DHT22;10488;50.846;4.078;2024-03-29T03:22:34;8.10;99.90
20658;DHT22;10488;50.846;4.078;2024-03-29T03:25:00;8.20;99.90
20658;DHT22;10488;50.846;4.078;2024-03-29T03:27:26;8.20;99.90
20658;DHT22;10488;50.846;4.078;2024-03-29T03:29:51;8.20;99.90
20658;DHT22;10488;50.846;4.078;2024-03-29T03:32:17;8.10;99.90
20658;DHT22;10488;50.846;4.078;2024-03-29T03:34:43;8.20;99.90
20658;DHT22;10488;50.846;4.078;2024-03-29T03:37:08;8.20;99.90
20658;DHT22;10488;50.846;4.078;2024-03-29T03:39:34;8.10;99.90
20658;DHT22;10488;50.846;4.078;2024-03-29T03:42:00;8.10;99.90
20658;DHT22;10488;50.846;4.078;2024-03-29T03:44:25;8.10;99.90
20658;DHT22;10488;50.846;4.078;2024-03-29T03:46:51;8.10;99.90
20658;DHT22;10488;50.846;4.078;2024-03-29T03:49:17;8.20;99.90
20658;DHT22;10488;50.846;4.078;2024-03-29T03:51:43;8.00;99.90
20658;DHT22;10488;50.846;4.078;2024-03-29T03:54:09;8.10;99.90
20658;DHT22;10488;50.846;4.078;2024-03-29T03:56:35;8.00;99.90
20658;DHT22;10488;50.846;4.078;2024-03-29T03:59:01;8.00;99.90
20658;DHT22;10488;50.846;4.078;2024-03-29T04:01:26;8.20;99.90
20658;DHT22;10488;50.846;4.078;2024-03-29T04:03:52;8.20;99.90
20658;DHT22;10488;50.846;4.078;2024-03-29T04:06:18;8.10;99.90
20658;DHT22;10488;50.846;4.078;2024-03-29T04:08:47;8.10;99.90
20658;DHT22;10488;50.846;4.078;2024-03-29T04:11:13;8.00;99.90
20658;DHT22;10488;50.846;4.078;2024-03-29T04:13:39;8.20;99.90
20658;DHT22;10488;50.846;4.078;2024-03-29T04:16:06;8.20;99.90
20658;DHT22;10488;50.846;4.078;2024-03-29T04:18:35;8.20;99.90
20658;DHT22;10488;50.846;4.078;2024-03-29T04:21:02;8.10;99.90
20658;DHT22;10488;50.846;4.078;2024-03-29T04:23:29;8.10;99.90
20658;DHT22;10488;50.846;4.078;2024-03-29T04:25:55;8.00;99.90
20658;DHT22;10488;50.846;4.078;2024-03-29T04:28:22;8.10;99.90
20658;DHT22;10488;50.846;4.078;2024-03-29T04:30:58;8.00;99.90
20658;DHT22;10488;50.846;4.078;2024-03-29T04:33:24;7.90;99.90
20658;DHT22;10488;50.846;4.078;2024-03-29T04:35:55;8.00;99.90
20658;DHT22;10488;50.846;4.078;2024-03-29T04:38:21;8.10;99.90
20658;DHT22;10488;50.846;4.078;2024-03-29T04:40:48;8.20;99.90
20658;DHT22;10488;50.846;4.078;2024-03-29T04:43:13;8.10;99.90
20658;DHT22;10488;50.846;4.078;2024-03-29T04:45:39;7.90;99.90
20658;DHT22;10488;50.846;4.078;2024-03-29T04:48:05;7.90;99.90
20658;DHT22;10488;50.846;4.078;2024-03-29T04:50:31;8.00;99.90
20658;DHT22;10488;50.846;4.078;2024-03-29T04:52:56;8.00;99.90
20658;DHT22;10488;50.846;4.078;2024-03-29T04:55:22;8.00;99.90
20658;DHT22;10488;50.846;4.078;2024-03-29T04:57:48;8.00;99.90
20658;DHT22;10488;50.846;4.078;2024-03-29T05:00:13;7.90;99.90
20658;DHT22;10488;50.846;4.078;2024-03-29T05:02:39;7.80;99.90
20658;DHT22;10488;50.846;4.078;2024-03-29T05:05:05;7.80;99.90
20658;DHT22;10488;50.846;4.078;2024-03-29T05:07:30;7.90;99.90
20658;DHT22;10488;50.846;4.078;2024-03-29T05:09:56;7.80;99.90
20658;DHT22;10488;50.846;4.078;2024-03-29T05:12:22;7.80;99.90
20658;DHT22;10488;50.846;4.078;2024-03-29T05:14:47;7.70;99.90
20658;DHT22;10488;50.846;4.078;2024-03-29T05:17:15;7.80;99.90
20658;DHT22;10488;50.846;4.078;2024-03-29T05:19:40;7.90;99.90
20658;DHT22;10488;50.846;4.078;2024-03-29T05:22:06;7.90;99.90
20658;DHT22;10488;50.846;4.078;2024-03-29T05:24:32;7.90;99.90
20658;DHT22;10488;50.846;4.078;2024-03-29T05:26:57;7.80;99.90
20658;DHT22;10488;50.846;4.078;2024-03-29T05:29:23;7.90;99.90
20658;DHT22;10488;50.846;4.078;2024-03-29T05:31:49;7.80;99.90
20658;DHT22;10488;50.846;4.078;2024-03-29T05:34:14;7.80;99.90
20658;DHT22;10488;50.846;4.078;2024-03-29T05:36:40;7.80;99.90
20658;DHT22;10488;50.846;4.078;2024-03-29T05:39:06;7.80;99.90
20658;DHT22;10488;50.846;4.078;2024-03-29T05:41:31;7.80;99.90
20658;DHT22;10488;50.846;4.078;2024-03-29T05:43:58;7.70;99.90
20658;DHT22;10488;50.846;4.078;2024-03-29T05:46:24;7.80;99.90
20658;DHT22;10488;50.846;4.078;2024-03-29T05:48:49;7.80;99.90
20658;DHT22;10488;50.846;4.078;2024-03-29T05:51:15;7.90;99.90
20658;DHT22;10488;50.846;4.078;2024-03-29T05:53:41;7.90;99.90
20658;DHT22;10488;50.846;4.078;2024-03-29T05:56:06;8.00;99.90
20658;DHT22;10488;50.846;4.078;2024-03-29T05:58:36;8.00;99.90
20658;DHT22;10488;50.846;4.078;2024-03-29T06:01:01;8.00;99.90
20658;DHT22;10488;50.846;4.078;2024-03-29T06:03:27;8.10;99.90
20658;DHT22;10488;50.846;4.078;2024-03-29T06:05:54;8.00;99.90
20658;DHT22;10488;50.846;4.078;2024-03-29T06:08:19;8.10;99.90
20658;DHT22;10488;50.846;4.078;2024-03-29T06:10:46;8.10;99.90
20658;DHT22;10488;50.846;4.078;2024-03-29T06:13:12;8.10;99.90
20658;DHT22;10488;50.846;4.078;2024-03-29T06:15:55;8.20;99.90
20658;DHT22;10488;50.846;4.078;2024-03-29T06:18:39;8.30;99.90
20658;DHT22;10488;50.846;4.078;2024-03-29T06:21:05;8.20;99.90
20658;DHT22;10488;50.846;4.078;2024-03-29T06:23:31;8.30;99.90
20658;DHT22;10488;50.846;4.078;2024-03-29T06:25:56;8.50;99.90
20658;DHT22;10488;50.846;4.078;2024-03-29T06:28:22;8.60;99.90
20658;DHT22;10488;50.846;4.078;2024-03-29T06:30:47;8.60;99.90
20658;DHT22;10488;50.846;4.078;2024-03-29T06:33:13;8.60;99.90
20658;DHT22;10488;50.846;4.078;2024-03-29T06:35:39;8.70;99.90
20658;DHT22;10488;50.846;4.078;2024-03-29T06:38:05;8.70;99.90
20658;DHT22;10488;50.846;4.078;2024-03-29T06:40:31;8.70;99.90
20658;DHT22;10488;50.846;4.078;2024-03-29T06:42:56;8.70;99.90
20658;DHT22;10488;50.846;4.078;2024-03-29T06:45:26;8.80;99.90
20658;DHT22;10488;50.846;4.078;2024-03-29T06:47:51;8.80;99.90
20658;DHT22;10488;50.846;4.078;2024-03-29T06:50:18;8.70;99.90
20658;DHT22;10488;50.846;4.078;2024-03-29T06:52:43;8.80;99.90
20658;DHT22;10488;50.846;4.078;2024-03-29T06:55:09;8.70;99.90
20658;DHT22;10488;50.846;4.078;2024-03-29T06:57:35;8.80;99.90
20658;DHT22;10488;50.846;4.078;2024-03-29T07:00:02;8.80;99.90
20658;DHT22;10488;50.846;4.078;2024-03-29T07:02:28;8.70;99.90
20658;DHT22;10488;50.846;4.078;2024-03-29T07:04:54;8.60;99.90
20658;DHT22;10488;50.846;4.078;2024-03-29T07:07:19;8.60;99.90
20658;DHT22;10488;50.846;4.078;2024-03-29T07:09:45;8.60;99.90
20658;DHT22;10488;50.846;4.078;2024-03-29T07:12:11;8.60;99.90
20658;DHT22;10488;50.846;4.078;2024-03-29T07:14:36;8.70;99.90
20658;DHT22;10488;50.846;4.078;2024-03-29T07:17:03;8.90;99.90
20658;DHT22;10488;50.846;4.078;2024-03-29T07:19:28;8.80;99.90
20658;DHT22;10488;50.846;4.078;2024-03-29T07:21:54;8.80;99.90
20658;DHT22;10488;50.846;4.078;2024-03-29T07:24:20;8.90;99.90
20658;DHT22;10488;50.846;4.078;2024-03-29T07:26:45;8.90;99.90
20658;DHT22;10488;50.846;4.078;2024-03-29T07:29:11;8.90;99.90
20658;DHT22;10488;50.846;4.078;2024-03-29T07:31:37;8.90;99.90
20658;DHT22;10488;50.846;4.078;2024-03-29T07:34:03;8.90;99.90
20658;DHT22;10488;50.846;4.078;2024-03-29T07:36:28;8.90;99.90
20658;DHT22;10488;50.846;4.078;2024-03-29T07:39:00;8.90;99.90
20658;DHT22;10488;50.846;4.078;2024-03-29T07:41:26;8.90;99.90
20658;DHT22;10488;50.846;4.078;2024-03-29T07:43:55;9.10;99.90
20658;DHT22;10488;50.846;4.078;2024-03-29T07:46:32;9.10;99.90
20658;DHT22;10488;50.846;4.078;2024-03-29T07:48:58;9.30;99.90
20658;DHT22;10488;50.846;4.078;2024-03-29T07:51:24;9.40;99.90
20658;DHT22;10488;50.846;4.078;2024-03-29T07:53:49;9.70;99.90
20658;DHT22;10488;50.846;4.078;2024-03-29T07:56:15;9.90;99.90
20658;DHT22;10488;50.846;4.078;2024-03-29T07:58:42;10.00;99.90
20658;DHT22;10488;50.846;4.078;2024-03-29T08:01:07;10.00;99.90
20658;DHT22;10488;50.846;4.078;2024-03-29T08:03:33;10.10;99.90
20658;DHT22;10488;50.846;4.078;2024-03-29T08:06:00;10.30;99.90
20658;DHT22;10488;50.846;4.078;2024-03-29T08:08:32;10.50;99.90
20658;DHT22;10488;50.846;4.078;2024-03-29T08:10:59;11.00;99.90
20658;DHT22;10488;50.846;4.078;2024-03-29T08:13:26;11.10;99.90
20658;DHT22;10488;50.846;4.078;2024-03-29T08:15:58;11.40;99.90
20658;DHT22;10488;50.846;4.078;2024-03-29T08:18:25;11.80;99.90
20658;DHT22;10488;50.846;4.078;2024-03-29T08:20:51;11.90;99.90
20658;DHT22;10488;50.846;4.078;2024-03-29T08:23:17;12.00;99.90
20658;DHT22;10488;50.846;4.078;2024-03-29T08:25:42;12.20;99.90
20658;DHT22;10488;50.846;4.078;2024-03-29T08:28:10;12.10;99.90
20658;DHT22;10488;50.846;4.078;2024-03-29T08:30:36;12.10;99.90
20658;DHT22;10488;50.846;4.078;2024-03-29T08:33:02;12.20;99.90
20658;DHT22;10488;50.846;4.078;2024-03-29T08:35:34;12.50;99.90
20658;DHT22;10488;50.846;4.078;2024-03-29T08:38:00;12.50;99.90
20658;DHT22;10488;50.846;4.078;2024-03-29T08:40:28;12.70;99.90
20658;DHT22;10488;50.846;4.078;2024-03-29T08:42:57;13.10;99.90
20658;DHT22;10488;50.846;4.078;2024-03-29T08:45:23;12.50;99.90
20658;DHT22;10488;50.846;4.078;2024-03-29T08:47:49;12.20;99.90
20658;DHT22;10488;50.846;4.078;2024-03-29T08:50:15;12.10;99.90
20658;DHT22;10488;50.846;4.078;2024-03-29T08:52:41;12.10;99.90
20658;DHT22;10488;50.846;4.078;2024-03-29T08:55:07;12.00;99.90
20658;DHT22;10488;50.846;4.078;2024-03-29T08:57:34;12.30;99.90
20658;DHT22;10488;50.846;4.078;2024-03-29T09:00:00;12.30;99.90
20658;DHT22;10488;50.846;4.078;2024-03-29T09:02:26;12.50;99.90
20658;DHT22;10488;50.846;4.078;2024-03-29T09:04:52;12.40;99.90
20658;DHT22;10488;50.846;4.078;2024-03-29T09:07:17;12.50;99.90
20658;DHT22;10488;50.846;4.078;2024-03-29T09:09:43;12.60;99.90
20658;DHT22;10488;50.846;4.078;2024-03-29T09:12:09;12.50;99.90
20658;DHT22;10488;50.846;4.078;2024-03-29T09:14:35;12.50;99.90
20658;DHT22;10488;50.846;4.078;2024-03-29T09:17:01;12.50;99.90
20658;DHT22;10488;50.846;4.078;2024-03-29T09:19:28;12.60;99.90
20658;DHT22;10488;50.846;4.078;2024-03-29T09:21:56;12.90;99.90
20658;DHT22;10488;50.846;4.078;2024-03-29T09:24:21;12.80;99.90
20658;DHT22;10488;50.846;4.078;2024-03-29T09:26:51;12.90;99.90
20658;DHT22;10488;50.846;4.078;2024-03-29T09:29:16;12.80;99.90
20658;DHT22;10488;50.846;4.078;2024-03-29T09:31:43;12.80;99.90
20658;DHT22;10488;50.846;4.078;2024-03-29T09:34:09;12.80;99.90
20658;DHT22;10488;50.846;4.078;2024-03-29T09:36:34;12.70;99.90
20658;DHT22;10488;50.846;4.078;2024-03-29T09:39:00;12.60;99.90
20658;DHT22;10488;50.846;4.078;2024-03-29T09:41:26;12.70;99.90
20658;DHT22;10488;50.846;4.078;2024-03-29T09:43:55;12.70;99.90
20658;DHT22;10488;50.846;4.078;2024-03-29T09:46:24;12.90;99.90
20658;DHT22;10488;50.846;4.078;2024-03-29T09:48:51;12.80;99.90
20658;DHT22;10488;50.846;4.078;2024-03-29T09:51:19;13.10;99.90
20658;DHT22;10488;50.846;4.078;2024-03-29T09:53:46;13.10;99.90
20658;DHT22;10488;50.846;4.078;2024-03-29T09:56:12;13.10;99.90
20658;DHT22;10488;50.846;4.078;2024-03-29T09:58:38;13.10;99.90
20658;DHT22;10488;50.846;4.078;2024-03-29T10:01:05;12.90;99.90
20658;DHT22;10488;50.846;4.078;2024-03-29T10:03:33;12.90;99.90
20658;DHT22;10488;50.846;4.078;2024-03-29T10:06:00;12.90;99.90
20658;DHT22;10488;50.846;4.078;2024-03-29T10:08:27;12.90;99.90
20658;DHT22;10488;50.846;4.078;2024-03-29T10:10:57;13.10;99.90
20658;DHT22;10488;50.846;4.078;2024-03-29T10:13:23;13.20;99.90
20658;DHT22;10488;50.846;4.078;2024-03-29T10:15:56;13.30;99.90
20658;DHT22;10488;50.846;4.078;2024-03-29T10:18:28;13.30;99.90
20658;DHT22;10488;50.846;4.078;2024-03-29T10:21:05;13.50;99.90
20658;DHT22;10488;50.846;4.078;2024-03-29T10:23:32;13.90;99.90
20658;DHT22;10488;50.846;4.078;2024-03-29T10:25:58;14.30;99.90
20658;DHT22;10488;50.846;4.078;2024-03-29T10:28:31;14.60;99.90
20658;DHT22;10488;50.846;4.078;2024-03-29T10:31:01;14.90;99.90
20658;DHT22;10488;50.846;4.078;2024-03-29T10:33:29;15.00;99.90
20658;DHT22;10488;50.846;4.078;2024-03-29T10:35:56;14.80;99.90
20658;DHT22;10488;50.846;4.078;2024-03-29T10:38:24;14.90;99.90
20658;DHT22;10488;50.846;4.078;2024-03-29T10:40:52;15.20;99.90
20658;DHT22;10488;50.846;4.078;2024-03-29T10:43:19;15.30;99.90
20658;DHT22;10488;50.846;4.078;2024-03-29T10:45:47;15.60;99.90
20658;DHT22;10488;50.846;4.078;2024-03-29T10:48:15;15.70;99.90
20658;DHT22;10488;50.846;4.078;2024-03-29T10:50:42;15.80;99.90
20658;DHT22;10488;50.846;4.078;2024-03-29T10:53:09;15.70;99.90
20658;DHT22;10488;50.846;4.078;2024-03-29T10:55:36;15.50;99.90
20658;DHT22;10488;50.846;4.078;2024-03-29T10:58:04;15.30;99.90
20658;DHT22;10488;50.846;4.078;2024-03-29T11:00:34;15.10;99.90
20658;DHT22;10488;50.846;4.078;2024-03-29T11:05:50;15.40;99.90
20658;DHT22;10488;50.846;4.078;2024-03-29T11:08:26;15.90;99.90
20658;DHT22;10488;50.846;4.078;2024-03-29T11:10:58;15.80;99.90
20658;DHT22;10488;50.846;4.078;2024-03-29T11:13:49;15.80;99.90
20658;DHT22;10488;50.846;4.078;2024-03-29T11:16:18;15.70;99.90
20658;DHT22;10488;50.846;4.078;2024-03-29T11:18:46;16.00;99.90
20658;DHT22;10488;50.846;4.078;2024-03-29T11:21:16;16.00;99.90
20658;DHT22;10488;50.846;4.078;2024-03-29T11:23:49;16.20;99.90
20658;DHT22;10488;50.846;4.078;2024-03-29T11:26:16;16.50;99.90
20658;DHT22;10488;50.846;4.078;2024-03-29T11:28:51;16.40;99.90
20658;DHT22;10488;50.846;4.078;2024-03-29T11:31:18;16.60;99.90
20658;DHT22;10488;50.846;4.078;2024-03-29T11:33:48;16.50;99.90
20658;DHT22;10488;50.846;4.078;2024-03-29T11:36:22;16.40;99.90
20658;DHT22;10488;50.846;4.078;2024-03-29T11:38:53;16.50;99.90
20658;DHT22;10488;50.846;4.078;2024-03-29T11:41:23;16.30;99.90
20658;DHT22;10488;50.846;4.078;2024-03-29T11:43:53;16.10;99.90
20658;DHT22;10488;50.846;4.078;2024-03-29T11:46:19;16.70;99.90
20658;DHT22;10488;50.846;4.078;2024-03-29T11:48:46;16.80;99.90
20658;DHT22;10488;50.846;4.078;2024-03-29T11:51:16;16.90;99.90
20658;DHT22;10488;50.846;4.078;2024-03-29T11:53:42;16.40;99.90
20658;DHT22;10488;50.846;4.078;2024-03-29T11:56:09;16.60;99.90
20658;DHT22;10488;50.846;4.078;2024-03-29T11:58:37;16.70;99.90
20658;DHT22;10488;50.846;4.078;2024-03-29T12:01:04;16.80;99.90
20658;DHT22;10488;50.846;4.078;2024-03-29T12:03:31;16.90;99.90
20658;DHT22;10488;50.846;4.078;2024-03-29T12:05:59;17.00;99.90
20658;DHT22;10488;50.846;4.078;2024-03-29T12:08:34;17.10;99.90
20658;DHT22;10488;50.846;4.078;2024-03-29T12:11:02;16.70;99.90
20658;DHT22;10488;50.846;4.078;2024-03-29T12:13:29;16.60;99.90
20658;DHT22;10488;50.846;4.078;2024-03-29T12:15:55;16.60;99.90
20658;DHT22;10488;50.846;4.078;2024-03-29T12:18:23;16.70;99.90
20658;DHT22;10488;50.846;4.078;2024-03-29T12:20:50;17.00;99.90
20658;DHT22;10488;50.846;4.078;2024-03-29T12:23:17;17.00;99.90
20658;DHT22;10488;50.846;4.078;2024-03-29T12:25:43;16.70;99.90
20658;DHT22;10488;50.846;4.078;2024-03-29T12:28:10;16.80;99.90
20658;DHT22;10488;50.846;4.078;2024-03-29T12:30:37;16.80;99.90
20658;DHT22;10488;50.846;4.078;2024-03-29T12:33:05;17.00;99.90
20658;DHT22;10488;50.846;4.078;2024-03-29T12:35:35;17.10;99.90
20658;DHT22;10488;50.846;4.078;2024-03-29T12:38:02;16.50;99.90
20658;DHT22;10488;50.846;4.078;2024-03-29T12:40:29;16.50;99.90
20658;DHT22;10488;50.846;4.078;2024-03-29T12:42:58;16.30;99.90
20658;DHT22;10488;50.846;4.078;2024-03-29T12:45:24;16.30;99.90
20658;DHT22;10488;50.846;4.078;2024-03-29T12:47:51;16.50;99.90
20658;DHT22;10488;50.846;4.078;2024-03-29T12:50:26;16.40;99.90
20658;DHT22;10488;50.846;4.078;2024-03-29T12:53:00;16.40;99.90
20658;DHT22;10488;50.846;4.078;2024-03-29T12:55:28;16.30;99.90
20658;DHT22;10488;50.846;4.078;2024-03-29T12:57:56;16.30;99.90
20658;DHT22;10488;50.846;4.078;2024-03-29T13:00:22;16.40;99.90
20658;DHT22;10488;50.846;4.078;2024-03-29T13:02:49;16.50;99.90
20658;DHT22;10488;50.846;4.078;2024-03-29T13:05:15;16.50;99.90
20658;DHT22;10488;50.846;4.078;2024-03-29T13:07:40;16.20;99.90
20658;DHT22;10488;50.846;4.078;2024-03-29T13:10:08;16.10;99.90
20658;DHT22;10488;50.846;4.078;2024-03-29T13:12:43;16.10;99.90
20658;DHT22;10488;50.846;4.078;2024-03-29T13:15:23;16.10;99.90
20658;DHT22;10488;50.846;4.078;2024-03-29T13:17:54;16.30;99.90
20658;DHT22;10488;50.846;4.078;2024-03-29T13:20:20;16.50;99.90
20658;DHT22;10488;50.846;4.078;2024-03-29T13:22:47;16.20;99.90
20658;DHT22;10488;50.846;4.078;2024-03-29T13:25:18;16.30;99.90
20658;DHT22;10488;50.846;4.078;2024-03-29T13:27:46;16.20;99.90
20658;DHT22;10488;50.846;4.078;2024-03-29T13:30:13;16.20;99.90
20658;DHT22;10488;50.846;4.078;2024-03-29T13:32:40;16.20;99.90
20658;DHT22;10488;50.846;4.078;2024-03-29T13:35:10;16.40;99.90
20658;DHT22;10488;50.846;4.078;2024-03-29T13:37:40;16.30;99.90
20658;DHT22;10488;50.846;4.078;2024-03-29T13:40:07;16.30;99.90
20658;DHT22;10488;50.846;4.078;2024-03-29T13:42:34;16.00;99.90
20658;DHT22;10488;50.846;4.078;2024-03-29T13:45:01;15.90;99.90
20658;DHT22;10488;50.846;4.078;2024-03-29T13:47:27;15.90;99.90
20658;DHT22;10488;50.846;4.078;2024-03-29T13:49:52;15.80;99.90
20658;DHT22;10488;50.846;4.078;2024-03-29T13:52:20;15.80;99.90
20658;DHT22;10488;50.846;4.078;2024-03-29T13:54:46;15.70;99.90
20658;DHT22;10488;50.846;4.078;2024-03-29T13:57:18;15.80;99.90
20658;DHT22;10488;50.846;4.078;2024-03-29T13:59:44;15.90;99.90
20658;DHT22;10488;50.846;4.078;2024-03-29T14:02:14;15.80;99.90
20658;DHT22;10488;50.846;4.078;2024-03-29T14:04:42;15.80;99.90
20658;DHT22;10488;50.846;4.078;2024-03-29T14:07:11;15.90;99.90
20658;DHT22;10488;50.846;4.078;2024-03-29T14:09:42;16.00;99.90
20658;DHT22;10488;50.846;4.078;2024-03-29T14:12:09;16.00;99.90
20658;DHT22;10488;50.846;4.078;2024-03-29T14:14:35;16.10;99.90
20658;DHT22;10488;50.846;4.078;2024-03-29T14:17:01;16.30;99.90
20658;DHT22;10488;50.846;4.078;2024-03-29T14:19:30;16.40;99.90
20658;DHT22;10488;50.846;4.078;2024-03-29T14:21:57;16.30;99.90
20658;DHT22;10488;50.846;4.078;2024-03-29T14:24:23;16.10;99.90
20658;DHT22;10488;50.846;4.078;2024-03-29T14:26:52;16.00;99.90
20658;DHT22;10488;50.846;4.078;2024-03-29T14:29:18;16.20;99.90
20658;DHT22;10488;50.846;4.078;2024-03-29T14:31:47;16.10;99.90
20658;DHT22;10488;50.846;4.078;2024-03-29T14:34:13;16.10;99.90
20658;DHT22;10488;50.846;4.078;2024-03-29T14:36:39;16.20;99.90
20658;DHT22;10488;50.846;4.078;2024-03-29T14:39:04;16.20;99.90
20658;DHT22;10488;50.846;4.078;2024-03-29T14:41:30;16.20;99.90
20658;DHT22;10488;50.846;4.078;2024-03-29T14:43:56;16.20;99.90
20658;DHT22;10488;50.846;4.078;2024-03-29T14:46:23;16.10;99.90
20658;DHT22;10488;50.846;4.078;2024-03-29T14:48:49;16.20;99.90
20658;DHT22;10488;50.846;4.078;2024-03-29T14:51:16;16.10;99.90
20658;DHT22;10488;50.846;4.078;2024-03-29T14:53:41;16.00;99.90
20658;DHT22;10488;50.846;4.078;2024-03-29T14:56:13;15.90;99.90
20658;DHT22;10488;50.846;4.078;2024-03-29T14:58:39;15.90;99.90
20658;DHT22;10488;50.846;4.078;2024-03-29T15:01:05;15.90;99.90
20658;DHT22;10488;50.846;4.078;2024-03-29T15:03:32;15.90;99.90
20658;DHT22;10488;50.846;4.078;2024-03-29T15:05:58;15.90;99.90
20658;DHT22;10488;50.846;4.078;2024-03-29T15:08:23;15.80;99.90
20658;DHT22;10488;50.846;4.078;2024-03-29T15:11:01;16.00;99.90
20658;DHT22;10488;50.846;4.078;2024-03-29T15:13:27;15.90;99.90
20658;DHT22;10488;50.846;4.078;2024-03-29T15:15:59;15.80;99.90
20658;DHT22;10488;50.846;4.078;2024-03-29T15:18:25;15.90;99.90
20658;DHT22;10488;50.846;4.078;2024-03-29T15:21:01;15.90;99.90
20658;DHT22;10488;50.846;4.078;2024-03-29T15:23:28;15.60;99.90
20658;DHT22;10488;50.846;4.078;2024-03-29T15:25:55;15.50;99.90
20658;DHT22;10488;50.846;4.078;2024-03-29T15:28:22;15.30;99.90
20658;DHT22;10488;50.846;4.078;2024-03-29T15:31:17;15.30;99.90
20658;DHT22;10488;50.846;4.078;2024-03-29T15:33:46;15.40;99.90
20658;DHT22;10488;50.846;4.078;2024-03-29T15:36:12;15.60;99.90
20658;DHT22;10488;50.846;4.078;2024-03-29T15:38:38;15.70;99.90
20658;DHT22;10488;50.846;4.078;2024-03-29T15:41:04;15.90;99.90